Time;durP1;ratioP1;P1;durP2;ratioP2;P2;SDS_P1;SDS_P2;PMS_P1;PMS_P2;Temp;Humidity;BMP_temperature;BMP_pressure;BME280_temperature;BME280_humidity;BME280_pressure;Samples;Min_cycle;Max_cycle;Signal;HPM_P1;HPM_P2
2023/10/15 00:00:40;;;;;;;8.38;2.92;;;;;;;9.58;69.47;98261.78;4895506;29;20037;-71
2023/10/15 00:03:07;;;;;;;9.50;3.03;;;;;;;9.68;69.24;98278.94;4910313;29;20039;-72
2023/10/15 00:05:32;;;;;;;11.07;3.08;;;;;;;9.68;69.46;98287.00;4879041;29;20121;-73
2023/10/15 00:07:57;;;;;;;8.88;3.30;;;;;;;9.64;69.50;98293.91;4940850;28;20116;-73
2023/10/15 00:10:27;;;;;;;8.60;3.00;;;;;;;9.64;69.37;98293.91;4878939;29;20083;-73
2023/10/15 00:12:54;;;;;;;7.40;2.72;;;;;;;9.57;69.26;98298.59;4897124;29;20036;-71
2023/10/15 00:15:23;;;;;;;10.13;3.28;;;;;;;9.48;69.49;98294.63;4863488;29;20038;-72
2023/10/15 00:17:52;;;;;;;7.82;3.30;;;;;;;9.55;69.40;98311.44;4864612;29;20045;-72
2023/10/15 00:20:20;;;;;;;7.82;3.00;;;;;;;9.47;69.47;98303.75;4909919;29;20032;-73
2023/10/15 00:22:50;;;;;;;9.30;2.90;;;;;;;9.50;69.80;98308.66;4895349;29;20032;-73
2023/10/15 00:25:19;;;;;;;10.05;3.05;;;;;;;9.30;69.81;98297.44;4878870;29;20033;-73
2023/10/15 00:27:52;;;;;;;7.95;2.63;;;;;;;9.30;70.34;98302.00;4909612;29;20380;-74
2023/10/15 00:30:21;;;;;;;9.80;2.90;;;;;;;9.23;70.53;98306.66;4909668;29;20032;-73
2023/10/15 00:32:52;;;;;;;7.07;2.70;;;;;;;9.23;70.64;98295.91;4895585;29;20024;-73
2023/10/15 00:35:20;;;;;;;8.30;3.15;;;;;;;9.10;71.18;98285.41;4895655;29;20152;-73
2023/10/15 00:37:56;;;;;;;6.57;2.70;;;;;;;9.23;71.21;98307.47;4905461;29;20083;-73
2023/10/15 00:40:25;;;;;;;13.10;3.47;;;;;;;9.28;70.56;98321.03;4957899;28;20047;-70
2023/10/15 00:42:52;;;;;;;7.80;3.00;;;;;;;9.26;71.14;98316.94;4863180;29;20047;-70
2023/10/15 00:45:20;;;;;;;7.88;2.95;;;;;;;9.23;71.20;98317.41;4867077;29;20041;-69
2023/10/15 00:48:07;;;;;;;8.35;2.70;;;;;;;9.26;70.48;98316.94;4901490;29;20037;-70
2023/10/15 00:50:40;;;;;;;9.38;2.97;;;;;;;9.23;71.50;98318.22;4895359;29;20071;-70
2023/10/15 00:53:24;;;;;;;11.00;2.80;;;;;;;9.29;70.98;98321.88;4863016;29;20040;-71
2023/10/15 00:55:55;;;;;;;8.45;2.70;;;;;;;9.34;70.84;98319.28;4891738;29;20028;-70
2023/10/15 01:01:19;;;;;;;7.88;2.63;;;;;;;9.25;71.30;98291.94;4879873;29;20080;-70
2023/10/15 01:03:50;;;;;;;7.90;3.05;;;;;;;9.40;70.63;98300.38;4907149;29;20044;-71
2023/10/15 01:06:20;;;;;;;13.45;2.90;;;;;;;9.48;70.79;98304.56;4894349;29;20421;-73
2023/10/15 01:08:47;;;;;;;6.85;2.70;;;;;;;9.47;70.68;98303.75;4898115;28;20065;-72
2023/10/15 01:11:18;;;;;;;8.95;3.17;;;;;;;9.49;70.91;98301.66;4893502;28;20464;-72
2023/10/15 01:13:44;;;;;;;7.78;3.03;;;;;;;9.35;70.78;98284.13;4863034;29;20032;-72
2023/10/15 01:16:12;;;;;;;8.57;2.97;;;;;;;9.37;70.97;98282.03;4889017;28;20390;-72
2023/10/15 01:18:38;;;;;;;6.35;2.45;;;;;;;9.44;70.96;98298.84;4906188;29;20044;-72
2023/10/15 01:21:09;;;;;;;11.27;3.25;;;;;;;9.40;71.13;98303.06;4890004;29;20029;-72
2023/10/15 01:26:12;;;;;;;13.10;3.00;;;;;;;9.27;71.07;98297.91;4894591;29;20044;-71
2023/10/15 01:28:37;;;;;;;8.60;3.00;;;;;;;9.18;71.50;98293.94;4894471;29;20048;-72
2023/10/15 01:31:15;;;;;;;10.82;2.83;;;;;;;9.05;71.16;98280.72;4894551;29;20029;-71
2023/10/15 01:33:49;;;;;;;9.32;2.90;;;;;;;9.08;71.67;98296.38;4863860;29;20060;-71
2023/10/15 01:36:19;;;;;;;11.50;3.55;;;;;;;9.06;71.20;98295.78;4975216;28;20047;-72
2023/10/15 01:38:45;;;;;;;9.10;2.90;;;;;;;9.03;71.22;98304.31;4877050;29;20095;-70
2023/10/15 01:41:15;;;;;;;9.75;3.15;;;;;;;8.93;71.60;98287.94;4878001;29;20055;-71
2023/10/15 01:43:46;;;;;;;8.02;3.17;;;;;;;8.91;71.98;98298.91;4875302;29;20409;-72
2023/10/15 01:46:20;;;;;;;7.85;3.40;;;;;;;8.78;71.53;98282.19;4885026;28;20036;-72
2023/10/15 01:48:47;;;;;;;8.45;3.30;;;;;;;8.66;71.74;98292.09;4890615;29;20036;-73
2023/10/15 01:51:16;;;;;;;9.52;2.88;;;;;;;8.62;71.86;98285.53;4882813;29;20043;-72
2023/10/15 01:53:45;;;;;;;6.68;3.20;;;;;;;8.57;72.40;98277.34;4895747;29;20033;-73
2023/10/15 01:56:17;;;;;;;9.18;3.33;;;;;;;8.55;72.44;98292.88;4896806;29;20040;-72
2023/10/15 01:58:44;;;;;;;10.85;3.42;;;;;;;8.43;73.10;98294.69;4942962;28;20071;-72
2023/10/15 02:01:31;;;;;;;7.18;3.33;;;;;;;8.38;72.70;98294.59;4872663;29;20496;-72
2023/10/15 02:03:57;;;;;;;9.40;3.45;;;;;;;8.27;73.38;98294.31;4907379;29;20115;-73
2023/10/15 02:06:25;;;;;;;10.07;3.30;;;;;;;8.32;72.66;98307.84;4909484;29;20480;-72
2023/10/15 02:08:51;;;;;;;10.40;3.08;;;;;;;8.05;73.04;98278.91;4893526;29;20047;-73
2023/10/15 02:11:21;;;;;;;9.00;3.25;;;;;;;8.25;73.70;98307.09;4906712;29;20033;-73
2023/10/15 02:13:47;;;;;;;5.82;2.70;;;;;;;8.28;73.18;98295.91;4893740;29;20060;-73
2023/10/15 02:16:17;;;;;;;7.22;3.22;;;;;;;8.30;73.06;98288.50;4943142;28;20028;-73
2023/10/15 02:18:46;;;;;;;9.52;3.45;;;;;;;8.21;73.56;98287.13;4898309;29;20408;-72
2023/10/15 02:21:23;;;;;;;9.98;3.50;;;;;;;8.29;73.03;98294.06;4903892;28;20032;-73
2023/10/15 02:23:51;;;;;;;9.05;3.80;;;;;;;8.16;73.54;98289.69;4886810;29;20507;-73
2023/10/15 02:26:18;;;;;;;10.77;3.85;;;;;;;8.20;73.31;98300.75;4877996;29;20538;-72
2023/10/15 02:28:44;;;;;;;5.53;3.40;;;;;;;7.96;73.46;98258.81;4894045;29;20036;-73
2023/10/15 02:33:34;;;;;;;8.93;3.53;;;;;;;8.16;73.79;98289.69;4876743;29;20515;-73
2023/10/15 02:36:00;;;;;;;7.20;4.00;;;;;;;8.16;74.33;98307.63;4894493;29;20056;-73
2023/10/15 02:38:27;;;;;;;10.30;4.40;;;;;;;8.23;73.46;98303.81;4876290;29;20117;-72
2023/10/15 02:40:58;;;;;;;8.73;4.10;;;;;;;8.15;73.73;98314.84;4891759;29;20032;-72
2023/10/15 02:43:27;;;;;;;8.95;4.13;;;;;;;8.13;74.32;98303.53;4907112;29;20071;-72
2023/10/15 02:45:52;;;;;;;10.48;4.18;;;;;;;8.10;74.11;98301.28;4876934;29;20033;-71
2023/10/15 02:48:26;;;;;;;8.93;3.97;;;;;;;8.09;73.95;98301.53;4876563;29;20033;-71
2023/10/15 02:51:03;;;;;;;9.55;4.18;;;;;;;7.94;75.15;98290.38;4877852;29;20119;-72
2023/10/15 02:53:34;;;;;;;9.10;4.22;;;;;;;7.97;74.91;98311.38;4890807;29;20349;-73
2023/10/15 02:55:59;;;;;;;8.85;4.68;;;;;;;7.83;75.11;98305.34;4878039;29;20037;-72
2023/10/15 02:58:28;;;;;;;11.93;4.53;;;;;;;7.78;75.48;98302.53;4892809;29;20555;-73
2023/10/15 03:00:59;;;;;;;10.85;5.00;;;;;;;7.75;75.47;98302.16;4889238;28;20037;-73
2023/10/15 03:03:32;;;;;;;10.93;4.35;;;;;;;7.78;75.58;98309.75;4873298;28;20173;-74
2023/10/15 03:05:58;;;;;;;11.48;4.70;;;;;;;7.79;76.27;98317.59;4873736;29;20045;-73
2023/10/15 03:08:30;;;;;;;7.28;4.13;;;;;;;7.73;75.69;98299.69;4863209;29;20032;-73
2023/10/15 03:11:01;;;;;;;9.82;4.25;;;;;;;7.82;75.90;98314.44;4865259;29;20052;-73
2023/10/15 03:13:28;;;;;;;8.73;4.40;;;;;;;7.86;76.07;98326.38;4880029;29;20051;-73
2023/10/15 03:15:57;;;;;;;9.02;4.13;;;;;;;7.83;75.70;98321.44;4904157;29;20028;-73
2023/10/15 03:18:23;;;;;;;9.90;4.60;;;;;;;7.87;76.19;98316.44;4880011;29;20063;-73
2023/10/15 03:20:49;;;;;;;12.40;4.55;;;;;;;7.94;75.78;98327.91;4864099;29;20056;-73
2023/10/15 03:23:19;;;;;;;10.45;4.38;;;;;;;7.87;76.40;98317.25;4879458;29;20056;-72
2023/10/15 03:25:57;;;;;;;11.07;4.45;;;;;;;7.85;76.91;98327.41;4864068;29;20047;-72
2023/10/15 03:28:24;;;;;;;9.82;4.20;;;;;;;7.81;76.55;98323.53;4880302;29;20115;-71
2023/10/15 03:30:54;;;;;;;9.60;3.90;;;;;;;7.68;76.60;98312.94;4879153;29;20160;-72
2023/10/15 03:33:23;;;;;;;11.27;4.00;;;;;;;7.67;76.67;98311.31;4880172;29;20043;-71
2023/10/15 03:35:54;;;;;;;8.20;4.03;;;;;;;7.77;77.01;98322.31;4864107;29;20029;-72
2023/10/15 03:38:24;;;;;;;8.23;3.92;;;;;;;7.80;76.63;98329.91;4879243;29;20041;-71
2023/10/15 03:40:50;;;;;;;10.05;3.75;;;;;;;7.82;76.85;98330.50;4895619;29;20033;-72
2023/10/15 03:43:20;;;;;;;9.75;3.90;;;;;;;7.88;77.02;98329.63;4977019;28;20515;-73
2023/10/15 03:45:51;;;;;;;7.15;3.70;;;;;;;7.87;77.32;98322.63;4894445;29;20028;-72
2023/10/15 03:48:22;;;;;;;8.18;4.10;;;;;;;7.95;77.02;98330.38;4895671;29;20040;-73
2023/10/15 03:50:53;;;;;;;9.40;3.90;;;;;;;7.91;76.76;98326.50;4894444;29;20091;-73
2023/10/15 03:53:28;;;;;;;9.00;4.38;;;;;;;7.93;76.96;98337.84;4910240;29;20218;-72
2023/10/15 03:55:57;;;;;;;9.20;4.35;;;;;;;7.77;77.02;98319.63;4895854;29;20484;-73
2023/10/15 03:58:23;;;;;;;8.88;3.97;;;;;;;7.77;76.80;98316.97;4895401;29;20033;-73
2023/10/15 04:00:54;;;;;;;9.30;4.55;;;;;;;7.87;77.50;98328.00;4909784;29;20059;-71
2023/10/15 04:03:28;;;;;;;11.00;4.45;;;;;;;7.84;77.71;98317.69;4909412;29;20489;-72
2023/10/15 04:06:09;;;;;;;8.00;3.75;;;;;;;7.86;76.83;98321.00;4909227;29;20404;-72
2023/10/15 04:08:37;;;;;;;16.83;4.57;;;;;;;7.83;76.88;98326.81;4908668;29;20041;-72
2023/10/15 04:11:03;;;;;;;7.80;3.92;;;;;;;7.90;77.49;98332.91;4892204;29;20175;-72
2023/10/15 04:13:28;;;;;;;8.52;4.25;;;;;;;7.90;76.98;98332.91;4863147;29;20492;-72
2023/10/15 04:15:55;;;;;;;10.55;3.97;;;;;;;7.77;77.76;98316.97;4878526;29;20071;-73
2023/10/15 04:18:24;;;;;;;12.70;4.28;;;;;;;7.94;77.83;98328.72;4878757;29;20063;-73
2023/10/15 04:20:51;;;;;;;8.82;3.80;;;;;;;7.80;77.27;98311.16;4861816;29;20473;-73
2023/10/15 04:23:31;;;;;;;9.45;3.90;;;;;;;7.87;77.79;98311.91;4868474;29;20123;-73
2023/10/15 04:26:11;;;;;;;20.55;13.40;;;;;;;8.04;77.54;98329.03;4895657;28;20083;-73
2023/10/15 04:28:37;;;;;;;12.25;6.97;;;;;;;7.97;77.70;98314.88;4863198;29;20037;-73
2023/10/15 04:31:11;;;;;;;11.55;7.43;;;;;;;8.05;77.58;98319.91;4895211;29;20556;-73
2023/10/15 04:33:41;;;;;;;9.27;5.18;;;;;;;7.91;77.59;98296.19;4895180;29;20039;-73
2023/10/15 04:36:09;;;;;;;9.82;4.07;;;;;;;8.05;77.34;98313.75;4863819;29;20044;-73
2023/10/15 04:38:38;;;;;;;8.32;4.03;;;;;;;8.15;77.06;98314.84;4896755;29;20540;-73
2023/10/15 04:41:03;;;;;;;12.98;5.57;;;;;;;8.17;77.23;98320.81;4894695;29;20036;-72
2023/10/15 04:43:29;;;;;;;9.13;4.40;;;;;;;8.15;77.48;98314.84;4878046;29;20026;-73
2023/10/15 04:45:56;;;;;;;10.00;4.57;;;;;;;8.14;76.99;98312.41;4862801;29;20056;-73
2023/10/15 04:48:36;;;;;;;11.38;4.45;;;;;;;7.97;77.52;98296.13;4881213;29;20120;-73
2023/10/15 04:51:06;;;;;;;8.75;4.63;;;;;;;7.94;77.12;98301.91;4879362;29;20063;-71
2023/10/15 04:53:32;;;;;;;10.80;4.18;;;;;;;7.85;77.08;98292.53;4889395;29;20045;-71
2023/10/15 04:55:59;;;;;;;10.15;4.50;;;;;;;7.77;76.82;98295.50;4892858;29;20070;-71
2023/10/15 04:58:27;;;;;;;10.57;4.15;;;;;;;7.60;77.36;98278.41;4907719;28;20135;-72
2023/10/15 05:00:54;;;;;;;10.48;5.43;;;;;;;7.73;76.55;98315.78;4956451;28;20036;-72
2023/10/15 05:03:20;;;;;;;12.02;5.22;;;;;;;7.66;78.03;98310.50;4876971;29;20535;-71
2023/10/15 05:05:46;;;;;;;10.00;4.55;;;;;;;7.64;77.41;98322.47;4873511;29;20033;-73
2023/10/15 05:08:12;;;;;;;11.43;4.78;;;;;;;7.53;77.23;98315.19;4893432;28;20041;-73
2023/10/15 05:10:44;;;;;;;12.07;5.30;;;;;;;7.56;78.19;98325.47;4909670;29;20099;-72
2023/10/15 05:13:13;;;;;;;12.45;5.35;;;;;;;7.38;77.41;98312.84;4894934;29;20132;-72
2023/10/15 05:15:42;;;;;;;15.23;5.53;;;;;;;7.42;77.45;98324.75;4877485;28;20384;-71
2023/10/15 05:18:08;;;;;;;12.88;5.82;;;;;;;7.42;76.94;98329.31;4893239;29;20040;-71
2023/10/15 05:20:33;;;;;;;12.18;5.40;;;;;;;7.33;77.88;98325.25;4877373;29;20665;-71
2023/10/15 05:22:59;;;;;;;14.15;6.18;;;;;;;7.15;78.79;98322.53;4878656;29;20051;-72
2023/10/15 05:25:24;;;;;;;12.82;5.32;;;;;;;7.17;77.70;98328.50;4895895;29;20030;-72
2023/10/15 05:27:50;;;;;;;6.93;4.47;;;;;;;7.18;78.16;98322.09;4910365;29;20455;-73
2023/10/15 05:30:15;;;;;;;12.98;5.45;;;;;;;7.15;78.48;98327.91;4897665;29;20072;-73
2023/10/15 05:32:43;;;;;;;9.10;4.65;;;;;;;7.13;78.33;98330.81;4882858;29;20452;-73
2023/10/15 05:35:09;;;;;;;11.32;4.82;;;;;;;7.02;78.53;98311.94;4879257;29;20059;-72
2023/10/15 05:37:36;;;;;;;10.38;4.40;;;;;;;7.11;78.38;98337.41;4897728;29;20045;-72
2023/10/15 05:40:03;;;;;;;13.02;4.93;;;;;;;7.16;78.42;98342.94;4883672;29;20033;-72
2023/10/15 05:42:29;;;;;;;14.07;4.68;;;;;;;7.10;78.49;98319.69;4893491;29;20060;-72
2023/10/15 05:44:55;;;;;;;10.20;4.43;;;;;;;7.19;79.34;98339.84;4879074;28;20083;-72
2023/10/15 05:47:21;;;;;;;11.90;5.20;;;;;;;7.11;79.34;98329.38;4892964;29;20081;-72
2023/10/15 05:49:46;;;;;;;12.50;5.07;;;;;;;7.21;77.84;98343.09;4875551;29;20496;-72
2023/10/15 05:52:12;;;;;;;11.85;7.45;;;;;;;7.12;78.60;98350.56;4884493;29;20044;-73
2023/10/15 05:54:37;;;;;;;13.15;5.60;;;;;;;7.11;78.46;98348.13;4897415;29;20039;-73
2023/10/15 05:57:05;;;;;;;14.63;6.30;;;;;;;7.10;78.39;98347.28;4958646;28;20124;-73
2023/10/15 05:59:31;;;;;;;14.13;6.93;;;;;;;7.09;78.26;98353.72;4892055;29;20060;-73
2023/10/15 06:01:58;;;;;;;20.52;7.43;;;;;;;6.97;78.95;98342.88;4900267;28;20034;-72
2023/10/15 06:04:23;;;;;;;13.05;6.38;;;;;;;7.05;78.53;98357.84;4907860;28;20078;-72
2023/10/15 06:06:49;;;;;;;13.02;7.82;;;;;;;7.03;78.49;98367.13;4897677;28;20123;-73
2023/10/15 06:09:14;;;;;;;22.00;12.45;;;;;;;6.92;78.73;98366.81;4884893;29;20035;-72
2023/10/15 06:11:40;;;;;;;31.85;16.90;;;;;;;6.86;78.63;98367.66;4893717;28;20033;-72
2023/10/15 06:14:05;;;;;;;55.55;33.45;;;;;;;6.76;79.37;98351.28;4893962;29;20035;-73
2023/10/15 06:16:32;;;;;;;72.78;39.28;;;;;;;6.86;78.51;98367.66;4900950;29;20093;-72
2023/10/15 06:18:57;;;;;;;25.17;12.68;;;;;;;6.79;78.93;98369.56;4908038;29;20392;-69
2023/10/15 06:21:23;;;;;;;48.42;28.63;;;;;;;6.82;78.79;98371.81;4893254;29;20112;-71
2023/10/15 06:23:49;;;;;;;50.40;31.10;;;;;;;6.84;79.66;98372.41;4861378;29;20095;-72
2023/10/15 06:26:14;;;;;;;45.25;27.02;;;;;;;6.79;79.57;98369.56;4958296;28;20492;-73
2023/10/15 06:28:40;;;;;;;40.17;25.80;;;;;;;6.69;79.27;98355.84;4888251;29;20029;-72
2023/10/15 06:31:05;;;;;;;30.98;17.88;;;;;;;6.83;79.69;98378.81;4893091;28;20041;-72
2023/10/15 06:33:31;;;;;;;27.48;15.07;;;;;;;6.74;79.72;98363.22;4885456;28;20098;-74
2023/10/15 06:35:57;;;;;;;21.00;10.85;;;;;;;6.85;78.95;98382.09;4898638;29;20119;-72
2023/10/15 06:38:22;;;;;;;17.05;8.10;;;;;;;6.81;79.63;98370.16;4897791;29;20025;-72
2023/10/15 06:40:48;;;;;;;15.85;6.72;;;;;;;6.80;79.97;98379.22;4907379;29;20036;-73
2023/10/15 06:43:15;;;;;;;14.40;9.38;;;;;;;6.83;80.74;98392.19;4894689;29;20024;-74
2023/10/15 06:45:41;;;;;;;16.38;8.23;;;;;;;6.71;80.59;98369.00;4903388;29;20526;-73
2023/10/15 06:48:06;;;;;;;15.82;7.03;;;;;;;6.81;81.06;98385.41;4896412;29;20038;-74
2023/10/15 06:50:33;;;;;;;15.65;6.80;;;;;;;6.93;81.47;98405.09;4896255;29;20044;-74
2023/10/15 06:53:01;;;;;;;13.20;6.45;;;;;;;6.90;81.05;98395.66;4876889;29;20037;-74
2023/10/15 06:55:27;;;;;;;14.30;6.55;;;;;;;7.00;81.43;98405.88;4894984;28;20036;-73
2023/10/15 06:57:53;;;;;;;12.68;6.82;;;;;;;7.18;81.69;98407.81;4895074;29;20106;-73
2023/10/15 07:00:23;;;;;;;12.07;7.07;;;;;;;7.29;81.74;98412.44;4867110;28;20032;-72
2023/10/15 07:02:52;;;;;;;16.75;8.82;;;;;;;7.38;81.43;98408.47;4911774;29;20139;-73
2023/10/15 07:05:23;;;;;;;14.75;8.02;;;;;;;7.34;81.17;98391.19;4882274;29;20036;-73
2023/10/15 07:07:49;;;;;;;12.57;6.50;;;;;;;7.46;82.19;98406.34;4881165;29;20123;-73
2023/10/15 07:10:15;;;;;;;10.57;6.13;;;;;;;7.61;80.99;98403.31;4875889;29;20100;-73
2023/10/15 07:12:50;;;;;;;12.65;5.97;;;;;;;7.75;80.92;98409.41;4895955;29;20110;-73
2023/10/15 07:15:17;;;;;;;13.45;5.78;;;;;;;7.81;81.57;98405.81;4884910;29;20048;-73
2023/10/15 07:17:43;;;;;;;11.00;6.15;;;;;;;7.68;81.66;98398.72;4947170;28;20392;-73
2023/10/15 07:20:14;;;;;;;11.18;6.20;;;;;;;7.80;81.44;98385.41;4889169;29;20495;-72
2023/10/15 07:22:43;;;;;;;13.68;7.90;;;;;;;7.87;81.07;98391.50;4893369;29;20032;-72
2023/10/15 07:25:10;;;;;;;17.08;6.47;;;;;;;7.94;81.62;98403.81;4887634;29;20083;-72
2023/10/15 07:27:37;;;;;;;15.00;7.75;;;;;;;8.00;81.10;98402.13;4886826;29;20063;-72
2023/10/15 07:30:03;;;;;;;10.73;5.80;;;;;;;8.07;80.83;98409.06;4878870;29;20429;-72
2023/10/15 07:32:29;;;;;;;12.52;6.50;;;;;;;7.99;80.53;98390.56;4895583;29;20172;-73
2023/10/15 07:34:54;;;;;;;16.08;8.55;;;;;;;8.07;79.91;98392.97;4910816;28;20056;-74
2023/10/15 07:37:19;;;;;;;11.73;5.45;;;;;;;8.01;80.03;98383.09;4879969;29;20043;-74
2023/10/15 07:39:45;;;;;;;16.48;9.18;;;;;;;8.05;80.38;98373.56;4890544;29;20396;-74
2023/10/15 07:42:11;;;;;;;15.23;7.00;;;;;;;8.24;80.03;98399.34;4895864;29;20511;-74
2023/10/15 07:44:36;;;;;;;13.20;6.80;;;;;;;8.23;79.76;98402.25;4879851;29;20040;-72
2023/10/15 07:47:02;;;;;;;12.07;5.97;;;;;;;8.18;79.44;98386.84;4880594;29;20033;-73
2023/10/15 07:49:28;;;;;;;16.65;8.10;;;;;;;8.23;79.80;98387.00;4879002;29;20445;-73
2023/10/15 07:51:54;;;;;;;14.70;4.90;;;;;;;8.48;79.87;98404.88;4891737;29;20063;-73
2023/10/15 07:54:19;;;;;;;10.07;4.57;;;;;;;8.54;79.07;98388.69;4887912;29;20391;-73
2023/10/15 07:56:45;;;;;;;11.88;4.40;;;;;;;8.52;79.22;98366.63;4897450;29;20127;-74
2023/10/15 07:59:10;;;;;;;12.30;4.55;;;;;;;8.77;77.92;98385.28;4863069;29;20032;-73
2023/10/15 08:01:38;;;;;;;14.50;6.00;;;;;;;8.80;78.39;98388.31;4891199;28;20036;-73
2023/10/15 08:04:06;;;;;;;13.82;4.88;;;;;;;8.86;77.81;98391.97;4871763;29;20027;-72
2023/10/15 08:06:33;;;;;;;10.65;4.72;;;;;;;8.84;78.38;98394.91;4891380;29;20051;-73
2023/10/15 08:08:58;;;;;;;13.45;4.30;;;;;;;8.73;78.40;98386.75;4878811;29;20036;-73
2023/10/15 08:11:24;;;;;;;12.05;4.95;;;;;;;8.83;78.09;98397.78;4897246;29;20041;-73
2023/10/15 08:13:50;;;;;;;10.55;4.50;;;;;;;8.83;78.53;98395.09;4863204;29;20029;-74
2023/10/15 08:16:18;;;;;;;12.38;4.43;;;;;;;8.96;77.69;98397.63;4894224;29;20040;-72
2023/10/15 08:18:44;;;;;;;9.35;4.18;;;;;;;8.98;77.44;98390.16;4878731;29;20052;-73
2023/10/15 08:21:11;;;;;;;8.57;4.10;;;;;;;8.96;77.28;98365.38;4885625;28;20103;-73
2023/10/15 08:23:38;;;;;;;10.65;3.83;;;;;;;9.01;76.64;98373.56;4908671;29;20071;-73
2023/10/15 08:26:05;;;;;;;8.75;4.00;;;;;;;9.09;76.32;98369.72;4863341;29;20055;-72
2023/10/15 08:28:31;;;;;;;12.18;4.53;;;;;;;9.25;76.16;98391.38;4909571;29;20079;-72
2023/10/15 08:30:57;;;;;;;9.55;3.85;;;;;;;9.26;76.13;98382.28;4909309;29;20032;-72
2023/10/15 08:33:23;;;;;;;9.18;3.63;;;;;;;9.26;75.95;98392.19;4909482;29;20155;-73
2023/10/15 08:35:49;;;;;;;8.43;3.75;;;;;;;9.30;75.53;98390.69;4874635;29;20163;-73
2023/10/15 08:38:15;;;;;;;11.50;3.92;;;;;;;9.29;74.99;98387.16;4895055;29;20480;-72
2023/10/15 08:40:45;;;;;;;11.73;4.10;;;;;;;9.46;73.97;98384.63;4908677;28;20149;-73
2023/10/15 08:43:11;;;;;;;9.48;4.00;;;;;;;9.52;73.89;98387.19;4897081;29;20052;-73
2023/10/15 08:45:37;;;;;;;11.30;3.70;;;;;;;9.56;74.17;98382.19;4895360;29;20032;-73
2023/10/15 08:48:05;;;;;;;9.10;3.70;;;;;;;9.60;73.85;98383.34;4967754;28;20248;-73
2023/10/15 08:50:32;;;;;;;11.27;3.95;;;;;;;9.78;73.98;98379.72;4882232;29;20039;-73
2023/10/15 08:52:59;;;;;;;10.80;3.80;;;;;;;9.69;73.79;98373.88;4878142;29;20043;-73
2023/10/15 08:55:25;;;;;;;10.23;3.70;;;;;;;9.84;73.48;98384.16;4913779;28;20029;-73
2023/10/15 08:57:54;;;;;;;9.63;3.47;;;;;;;9.91;73.23;98385.69;4909303;28;20400;-74
2023/10/15 09:00:28;;;;;;;7.40;3.35;;;;;;;9.94;73.71;98379.00;4878000;29;20099;-73
2023/10/15 09:02:57;;;;;;;8.52;3.33;;;;;;;10.06;73.15;98385.22;4878776;29;20083;-73
2023/10/15 09:05:23;;;;;;;9.40;3.35;;;;;;;10.10;73.30;98364.84;4876166;28;20107;-73
2023/10/15 09:07:52;;;;;;;10.45;3.50;;;;;;;10.16;72.26;98370.13;4896527;29;20150;-73
2023/10/15 09:10:17;;;;;;;7.75;2.70;;;;;;;10.32;71.53;98382.00;4883330;29;20032;-73
2023/10/15 09:12:43;;;;;;;9.52;2.47;;;;;;;10.33;70.16;98378.28;4893180;29;20056;-73
2023/10/15 09:15:17;;;;;;;7.85;2.60;;;;;;;10.59;69.75;98366.13;4893292;29;20020;-73
2023/10/15 09:17:55;;;;;;;11.82;2.60;;;;;;;10.70;68.20;98379.53;4918706;23;20048;-71
2023/10/15 09:20:27;;;;;;;8.48;2.30;;;;;;;10.78;66.84;98365.69;4905645;29;20036;-70
2023/10/15 09:23:00;;;;;;;8.32;2.38;;;;;;;11.05;66.03;98382.91;4912063;29;20491;-71
2023/10/15 09:25:31;;;;;;;4.85;1.77;;;;;;;11.17;64.46;98380.13;4911287;29;20483;-70
2023/10/15 09:27:58;;;;;;;7.15;2.00;;;;;;;11.34;64.15;98369.38;4912137;29;20525;-70
2023/10/15 09:30:24;;;;;;;7.70;2.50;;;;;;;11.64;64.01;98361.75;4910051;29;20036;-71
2023/10/15 09:32:49;;;;;;;7.90;2.00;;;;;;;11.73;62.96;98368.38;4901658;29;20032;-70
2023/10/15 09:35:15;;;;;;;8.77;2.63;;;;;;;11.52;62.73;98352.94;4911890;29;20032;-70
2023/10/15 09:37:41;;;;;;;8.52;2.30;;;;;;;11.62;61.88;98377.38;4904430;29;20256;-72
2023/10/15 09:40:20;;;;;;;8.52;2.35;;;;;;;11.69;61.34;98367.25;4902014;29;20024;-70
2023/10/15 09:42:55;;;;;;;5.85;1.85;;;;;;;11.57;60.14;98363.81;4903360;29;20040;-72
2023/10/15 09:45:24;;;;;;;6.40;2.00;;;;;;;11.38;60.43;98343.53;4893045;29;20051;-72
2023/10/15 09:47:57;;;;;;;6.93;1.90;;;;;;;11.53;59.08;98360.75;4892797;29;20491;-70
2023/10/15 09:50:27;;;;;;;5.55;1.55;;;;;;;11.81;57.90;98367.94;4906330;29;20052;-71
2023/10/15 09:52:56;;;;;;;4.40;1.52;;;;;;;11.52;56.99;98366.41;4895166;29;20036;-70
2023/10/15 09:55:23;;;;;;;5.05;1.60;;;;;;;11.66;56.58;98359.63;4894506;29;20025;-70
2023/10/15 09:57:52;;;;;;;8.00;1.98;;;;;;;11.96;56.17;98365.47;4905879;29;20437;-70
2023/10/15 10:00:26;;;;;;;5.63;1.83;;;;;;;12.09;55.63;98367.81;4912282;29;20032;-70
2023/10/15 10:03:08;;;;;;;2.92;1.52;;;;;;;12.11;54.50;98371.06;4896722;29;20485;-69
2023/10/15 10:05:49;;;;;;;4.72;1.63;;;;;;;11.93;53.20;98368.66;4892770;29;20127;-70
2023/10/15 10:08:47;;;;;;;5.63;1.67;;;;;;;12.27;54.10;98364.00;4892723;29;20052;-69
2023/10/15 10:11:43;;;;;;;4.15;1.52;;;;;;;12.38;54.46;98357.66;4905790;29;20389;-70
2023/10/15 10:14:29;;;;;;;4.55;1.58;;;;;;;12.12;53.92;98356.53;4902781;29;20039;-73
2023/10/15 10:16:55;;;;;;;5.00;2.17;;;;;;;12.00;53.30;98377.41;4892538;29;20403;-72
2023/10/15 10:19:20;;;;;;;4.32;1.35;;;;;;;12.01;53.76;98357.47;4899540;28;20037;-72
2023/10/15 10:21:47;;;;;;;3.40;1.58;;;;;;;12.16;53.76;98362.25;4909791;29;20040;-72
2023/10/15 10:24:12;;;;;;;8.02;1.63;;;;;;;12.15;54.26;98353.31;4883449;28;20104;-73
2023/10/15 10:26:42;;;;;;;6.63;1.63;;;;;;;12.05;54.30;98360.47;4901888;29;20072;-72
2023/10/15 10:29:09;;;;;;;5.60;1.80;;;;;;;12.14;55.48;98365.19;4896799;29;20035;-73
2023/10/15 10:31:36;;;;;;;8.30;1.80;;;;;;;11.84;55.89;98358.53;4911770;29;20052;-73
2023/10/15 10:34:03;;;;;;;7.40;2.17;;;;;;;11.78;56.30;98365.78;4903654;29;20032;-74
2023/10/15 10:36:30;;;;;;;5.05;1.65;;;;;;;11.75;56.11;98361.69;4895883;29;20523;-73
2023/10/15 10:39:10;;;;;;;6.60;2.00;;;;;;;11.61;55.83;98370.31;4895214;29;20443;-73
2023/10/15 10:41:40;;;;;;;6.70;1.67;;;;;;;11.62;56.43;98367.38;4909351;29;20039;-73
2023/10/15 10:44:26;;;;;;;8.52;2.35;;;;;;;11.74;55.89;98370.00;4945693;28;20042;-72
2023/10/15 10:46:52;;;;;;;7.07;2.50;;;;;;;11.95;56.40;98361.13;4997000;28;20058;-73
2023/10/15 10:49:30;;;;;;;5.13;2.10;;;;;;;11.96;57.28;98335.78;4984422;28;20080;-73
2023/10/15 10:52:14;;;;;;;7.85;2.15;;;;;;;12.30;57.10;98358.91;4990283;28;20034;-73
2023/10/15 10:54:40;;;;;;;5.20;2.03;;;;;;;12.24;56.30;98349.13;4992988;28;20121;-73
2023/10/15 10:57:09;;;;;;;5.55;2.05;;;;;;;12.38;55.03;98344.97;4994280;28;20140;-72
2023/10/15 10:59:36;;;;;;;5.35;1.63;;;;;;;12.40;55.54;98336.59;4992515;28;20124;-73
2023/10/15 11:02:04;;;;;;;5.85;1.88;;;;;;;12.49;55.17;98346.72;4974763;28;20033;-73
2023/10/15 11:04:30;;;;;;;13.32;2.08;;;;;;;12.54;55.05;98350.53;4971974;28;20409;-73
2023/10/15 11:06:55;;;;;;;5.47;1.60;;;;;;;12.38;54.44;98339.56;4974705;28;20023;-73
2023/10/15 11:09:22;;;;;;;7.22;1.80;;;;;;;12.10;53.46;98328.97;4987509;28;20398;-73
2023/10/15 11:11:52;;;;;;;3.45;1.42;;;;;;;12.28;52.99;98341.31;4986320;28;20033;-73
2023/10/15 11:14:22;;;;;;;4.28;1.58;;;;;;;12.21;53.06;98338.81;4991274;28;20113;-73
2023/10/15 11:16:48;;;;;;;4.18;1.45;;;;;;;11.92;54.34;98325.75;4994415;28;20026;-73
2023/10/15 11:19:22;;;;;;;5.47;1.75;;;;;;;12.05;54.24;98358.59;4977345;28;20370;-71
2023/10/15 11:21:49;;;;;;;6.85;1.77;;;;;;;11.87;55.35;98353.47;5001459;28;20038;-72
2023/10/15 11:24:15;;;;;;;5.82;1.88;;;;;;;11.57;55.12;98361.09;4976760;28;20027;-70
2023/10/15 11:26:44;;;;;;;3.25;1.70;;;;;;;11.45;56.05;98354.97;4975697;28;20066;-70
2023/10/15 11:29:11;;;;;;;6.25;1.60;;;;;;;11.39;57.20;98361.34;4973683;28;20391;-70
2023/10/15 11:31:45;;;;;;;3.97;1.60;;;;;;;11.20;57.68;98352.69;4975647;28;20039;-70
2023/10/15 11:34:17;;;;;;;3.22;1.55;;;;;;;11.31;58.38;98356.38;4974115;28;20039;-73
2023/10/15 11:36:43;;;;;;;6.85;1.67;;;;;;;11.38;58.00;98354.31;4975393;28;20113;-73
2023/10/15 11:39:17;;;;;;;4.60;1.70;;;;;;;11.99;57.78;98351.50;4979938;28;20034;-73
2023/10/15 11:41:49;;;;;;;7.78;2.08;;;;;;;13.73;54.17;98325.69;4969643;28;20155;-73
2023/10/15 11:44:15;;;;;;;6.15;1.60;;;;;;;15.39;50.26;98324.56;4985846;28;20038;-73
2023/10/15 11:46:41;;;;;;;3.53;1.60;;;;;;;16.47;47.50;98334.69;4972246;28;20022;-74
2023/10/15 11:49:09;;;;;;;3.40;1.65;;;;;;;16.98;45.24;98312.66;4990398;28;20053;-74
2023/10/15 11:51:35;;;;;;;3.03;1.45;;;;;;;17.62;42.97;98302.34;4973073;28;20436;-74